Time;durP1;ratioP1;P1;durP2;ratioP2;P2;SDS_P1;SDS_P2;PMS_P1;PMS_P2;Temp;Humidity;BMP_temperature;BMP_pressure;BME280_temperature;BME280_humidity;BME280_pressure;Samples;Min_cycle;Max_cycle;Signal;HPM_P1;HPM_P2
2022/12/06 00:01:18;;;;;;;;;31.75;28.75;;;;;-147.17;100.00;-15917.19;5004705;28;51133;-38
2022/12/06 00:03:45;;;;;;;;;37.25;31.00;;;;;-147.17;100.00;-15917.19;5004924;28;51086;-38
2022/12/06 00:06:16;;;;;;;;;43.50;39.00;;;;;-147.17;100.00;-15917.19;5011596;28;51343;-38
2022/12/06 00:08:42;;;;;;;;;44.75;39.75;;;;;-147.17;100.00;-15917.19;5010054;28;52151;-38
2022/12/06 00:11:10;;;;;;;;;39.50;34.75;;;;;-147.17;100.00;-15917.19;5001997;28;51130;-38
2022/12/06 00:13:36;;;;;;;;;28.25;27.50;;;;;-147.17;100.00;-15917.19;4984406;28;51301;-38
2022/12/06 00:16:05;;;;;;;;;43.75;38.25;;;;;-147.17;100.00;-15917.19;5015370;28;51230;-38
2022/12/06 00:18:33;;;;;;;;;40.25;33.50;;;;;-147.17;100.00;-15917.19;5010347;28;51022;-39
2022/12/06 00:21:29;;;;;;;;;45.25;38.75;;;;;-147.17;100.00;-15917.19;5011758;28;51331;-38
2022/12/06 00:24:00;;;;;;;;;45.75;39.25;;;;;-147.17;100.00;-15917.19;5004508;28;51042;-38
2022/12/06 00:26:26;;;;;;;;;43.75;36.50;;;;;-147.17;100.00;-15917.19;5007588;28;51244;-38
2022/12/06 00:28:54;;;;;;;;;39.00;35.00;;;;;-147.17;100.00;-15917.19;5005348;28;52722;-39
2022/12/06 00:31:21;;;;;;;;;33.00;26.75;;;;;-147.17;100.00;-15917.19;5002043;28;52705;-38
2022/12/06 00:33:46;;;;;;;;;40.00;36.50;;;;;-147.17;100.00;-15917.19;5011774;28;51153;-43
2022/12/06 00:36:14;;;;;;;;;44.50;39.25;;;;;-147.17;100.00;-15917.19;5010485;28;51315;-38
2022/12/06 00:38:40;;;;;;;;;44.75;38.50;;;;;-147.17;100.00;-15917.19;5011280;28;52052;-38
2022/12/06 00:41:12;;;;;;;;;50.50;39.25;;;;;-147.17;100.00;-15917.19;5006140;28;51592;-38
2022/12/06 00:43:37;;;;;;;;;41.50;34.25;;;;;-147.17;100.00;-15917.19;5005923;28;51416;-38
2022/12/06 00:46:05;;;;;;;;;42.25;33.50;;;;;-147.17;100.00;-15917.19;5007176;28;51431;-38
2022/12/06 00:48:30;;;;;;;;;39.50;31.25;;;;;-147.17;100.00;-15917.19;5005296;28;51251;-38
2022/12/06 00:50:56;;;;;;;;;37.75;32.75;;;;;-147.17;100.00;-15917.19;5010777;28;51003;-38
2022/12/06 00:53:22;;;;;;;;;39.00;36.75;;;;;-147.17;100.00;-15917.19;5011688;28;51254;-38
2022/12/06 00:55:47;;;;;;;;;46.25;37.50;;;;;-147.17;100.00;-15917.19;5005473;28;51177;-39
2022/12/06 00:58:14;;;;;;;;;48.00;39.50;;;;;-147.17;100.00;-15917.19;5003474;28;51684;-38
2022/12/06 01:00:39;;;;;;;;;35.75;33.75;;;;;-147.17;100.00;-15917.19;4992145;28;51484;-38
2022/12/06 01:03:05;;;;;;;;;35.75;34.25;;;;;-147.17;100.00;-15917.19;4999288;28;52067;-38
2022/12/06 01:05:31;;;;;;;;;46.00;40.50;;;;;-147.17;100.00;-15917.19;5004332;28;51610;-38
2022/12/06 01:07:56;;;;;;;;;49.00;38.00;;;;;-147.17;100.00;-15917.19;5000631;28;52604;-39
2022/12/06 01:10:22;;;;;;;;;50.75;41.00;;;;;-147.17;100.00;-15917.19;5007389;28;51217;-38
2022/12/06 01:12:47;;;;;;;;;52.00;42.50;;;;;-147.17;100.00;-15917.19;5006187;28;51179;-38
2022/12/06 01:15:13;;;;;;;;;47.50;40.50;;;;;-147.17;100.00;-15917.19;5004077;28;51346;-38
2022/12/06 01:17:38;;;;;;;;;41.25;37.00;;;;;-147.17;100.00;-15917.19;5010116;28;51130;-38
2022/12/06 01:20:05;;;;;;;;;35.50;32.75;;;;;-147.17;100.00;-15917.19;5013989;28;51151;-42
2022/12/06 01:22:31;;;;;;;;;46.50;41.25;;;;;-147.17;100.00;-15917.19;5007839;28;51116;-39
2022/12/06 01:24:56;;;;;;;;;46.00;39.50;;;;;-147.17;100.00;-15917.19;5006170;28;51050;-38
2022/12/06 01:27:22;;;;;;;;;46.75;39.00;;;;;-147.17;100.00;-15917.19;5000689;28;51074;-39
2022/12/06 01:29:47;;;;;;;;;41.00;38.25;;;;;-147.17;100.00;-15917.19;4999256;28;50975;-38
2022/12/06 01:32:13;;;;;;;;;42.25;40.00;;;;;-147.17;100.00;-15917.19;4998654;28;51102;-38
2022/12/06 01:34:38;;;;;;;;;43.75;38.25;;;;;-147.17;100.00;-15917.19;5008264;28;51460;-38
2022/12/06 01:37:04;;;;;;;;;42.25;37.50;;;;;-147.17;100.00;-15917.19;5001581;28;55821;-38
2022/12/06 01:39:30;;;;;;;;;47.00;38.00;;;;;-147.17;100.00;-15917.19;4998420;28;51363;-43
2022/12/06 01:41:56;;;;;;;;;19.50;15.75;;;;;-147.17;100.00;-15917.19;5001899;28;51575;-38
2022/12/06 01:44:49;;;;;;;;;38.50;35.50;;;;;-147.17;100.00;-15917.19;4986884;28;52360;-38
2022/12/06 01:47:19;;;;;;;;;44.25;38.75;;;;;-147.17;100.00;-15917.19;4994229;28;51163;-38
2022/12/06 01:49:51;;;;;;;;;43.75;35.50;;;;;-147.17;100.00;-15917.19;5000525;28;51299;-38
2022/12/06 01:52:20;;;;;;;;;41.75;35.50;;;;;-147.17;100.00;-15917.19;5003225;28;51959;-38
2022/12/06 01:54:45;;;;;;;;;33.00;27.00;;;;;-147.17;100.00;-15917.19;5002697;28;51208;-38
2022/12/06 01:57:14;;;;;;;;;37.75;35.25;;;;;-147.17;100.00;-15917.19;4999795;28;51582;-38
2022/12/06 01:59:40;;;;;;;;;35.00;31.00;;;;;-147.17;100.00;-15917.19;5004429;28;51116;-38
2022/12/06 02:02:06;;;;;;;;;40.00;37.25;;;;;-147.17;100.00;-15917.19;5003448;28;51353;-38
2022/12/06 02:04:32;;;;;;;;;37.75;32.75;;;;;-147.17;100.00;-15917.19;4998417;28;51390;-38
2022/12/06 02:06:59;;;;;;;;;40.00;38.75;;;;;-147.17;100.00;-15917.19;5005644;28;51803;-38
2022/12/06 02:09:27;;;;;;;;;35.50;34.25;;;;;-147.17;100.00;-15917.19;4990447;28;51193;-38
2022/12/06 02:11:52;;;;;;;;;38.00;37.00;;;;;-147.17;100.00;-15917.19;5011505;28;51386;-38
2022/12/06 02:14:23;;;;;;;;;36.50;32.75;;;;;-147.17;100.00;-15917.19;5011836;28;51093;-38
2022/12/06 02:17:12;;;;;;;;;45.25;40.00;;;;;-147.17;100.00;-15917.19;5004771;28;51748;-38
2022/12/06 02:19:56;;;;;;;;;36.25;31.25;;;;;-147.17;100.00;-15917.19;5008356;28;51129;-38
2022/12/06 02:22:59;;;;;;;;;36.00;31.00;;;;;-147.17;100.00;-15917.19;5002200;28;51124;-38
2022/12/06 02:25:39;;;;;;;;;35.50;35.00;;;;;-147.17;100.00;-15917.19;5012717;28;51288;-38
2022/12/06 02:28:30;;;;;;;;;43.00;36.00;;;;;-147.17;100.00;-15917.19;5012008;28;52613;-38
2022/12/06 02:31:11;;;;;;;;;35.50;33.50;;;;;-147.17;100.00;-15917.19;5007205;28;51109;-38
2022/12/06 02:33:50;;;;;;;;;45.00;39.50;;;;;-147.17;100.00;-15917.19;5011502;28;51243;-38
2022/12/06 02:36:44;;;;;;;;;43.00;37.75;;;;;-147.17;100.00;-15917.19;5012678;28;51280;-38
2022/12/06 02:39:28;;;;;;;;;31.50;24.00;;;;;-147.17;100.00;-15917.19;4991120;28;51785;-38
2022/12/06 02:42:01;;;;;;;;;34.25;31.25;;;;;-147.17;100.00;-15917.19;5013304;28;51058;-38
2022/12/06 02:44:34;;;;;;;;;34.50;31.50;;;;;-147.17;100.00;-15917.19;4994269;28;51304;-39
2022/12/06 02:47:02;;;;;;;;;46.00;35.50;;;;;-147.17;100.00;-15917.19;5012008;28;51481;-38
2022/12/06 02:49:32;;;;;;;;;32.00;31.25;;;;;-147.17;100.00;-15917.19;5008328;28;51317;-38
2022/12/06 02:51:58;;;;;;;;;38.75;35.00;;;;;-147.17;100.00;-15917.19;5007425;28;50990;-38
2022/12/06 02:54:26;;;;;;;;;39.50;34.00;;;;;-147.17;100.00;-15917.19;4998356;28;51257;-38
2022/12/06 02:56:51;;;;;;;;;35.75;33.25;;;;;-147.17;100.00;-15917.19;5005778;28;51163;-38
2022/12/06 02:59:17;;;;;;;;;37.75;35.00;;;;;-147.17;100.00;-15917.19;5008451;28;51184;-38
2022/12/06 03:01:48;;;;;;;;;36.00;30.75;;;;;-147.17;100.00;-15917.19;5000589;28;51045;-38
2022/12/06 03:04:16;;;;;;;;;33.50;33.50;;;;;-147.17;100.00;-15917.19;5009776;28;50971;-38
2022/12/06 03:07:08;;;;;;;;;39.25;37.75;;;;;-147.17;100.00;-15917.19;5009384;28;50957;-38
2022/12/06 03:09:42;;;;;;;;;34.00;31.00;;;;;-147.17;100.00;-15917.19;5008549;28;52113;-38
2022/12/06 03:12:21;;;;;;;;;41.00;36.25;;;;;-147.17;100.00;-15917.19;5012079;28;51148;-37
2022/12/06 03:14:59;;;;;;;;;37.25;32.75;;;;;-147.17;100.00;-15917.19;5006404;28;51226;-38
2022/12/06 03:17:49;;;;;;;;;39.75;32.75;;;;;-147.17;100.00;-15917.19;5000294;28;51142;-38
2022/12/06 03:20:22;;;;;;;;;31.50;27.00;;;;;-147.17;100.00;-15917.19;5011279;28;52019;-37
2022/12/06 03:22:57;;;;;;;;;37.00;32.50;;;;;-147.17;100.00;-15917.19;5005500;28;50953;-38
2022/12/06 03:25:24;;;;;;;;;39.50;35.25;;;;;-147.17;100.00;-15917.19;5010885;28;51249;-38
2022/12/06 03:27:52;;;;;;;;;34.00;31.25;;;;;-147.17;100.00;-15917.19;5012284;28;50894;-38
2022/12/06 03:30:18;;;;;;;;;30.00;28.25;;;;;-147.17;100.00;-15917.19;5004068;28;51110;-37
2022/12/06 03:32:46;;;;;;;;;40.00;36.00;;;;;-147.17;100.00;-15917.19;5009182;28;50996;-38
2022/12/06 03:35:16;;;;;;;;;35.00;33.00;;;;;-147.17;100.00;-15917.19;5009003;28;51177;-38
2022/12/06 03:37:49;;;;;;;;;42.00;35.00;;;;;-147.17;100.00;-15917.19;5004497;28;51163;-39
2022/12/06 03:40:20;;;;;;;;;35.00;29.50;;;;;-147.17;100.00;-15917.19;5001101;28;52012;-37
2022/12/06 03:42:48;;;;;;;;;39.25;35.50;;;;;-147.17;100.00;-15917.19;5007558;28;51237;-38
2022/12/06 03:45:13;;;;;;;;;40.00;35.00;;;;;-147.17;100.00;-15917.19;4991252;28;51225;-37
2022/12/06 03:47:50;;;;;;;;;46.25;40.00;;;;;-147.17;100.00;-15917.19;4998924;28;51339;-37
2022/12/06 03:50:22;;;;;;;;;47.25;37.25;;;;;-147.17;100.00;-15917.19;5007767;28;51940;-38
2022/12/06 03:52:50;;;;;;;;;37.00;34.25;;;;;-147.17;100.00;-15917.19;5006518;28;51066;-38
2022/12/06 03:55:15;;;;;;;;;40.75;35.25;;;;;-147.17;100.00;-15917.19;5010379;28;50996;-38
2022/12/06 03:57:41;;;;;;;;;41.75;36.50;;;;;-147.17;100.00;-15917.19;5010487;28;51200;-38
2022/12/06 04:00:07;;;;;;;;;45.50;36.00;;;;;-147.17;100.00;-15917.19;5010209;28;51852;-37
2022/12/06 04:02:32;;;;;;;;;39.75;35.25;;;;;-147.17;100.00;-15917.19;5006181;28;51184;-38
2022/12/06 04:04:58;;;;;;;;;45.50;41.00;;;;;-147.17;100.00;-15917.19;4985978;28;51181;-38
2022/12/06 04:07:23;;;;;;;;;41.50;36.75;;;;;-147.17;100.00;-15917.19;5009388;28;51348;-38
2022/12/06 04:09:51;;;;;;;;;41.25;36.00;;;;;-147.17;100.00;-15917.19;5009758;28;51677;-38
2022/12/06 04:15:07;;;;;;;;;46.25;38.75;;;;;-147.17;100.00;-15917.19;5009700;28;51241;-38
2022/12/06 04:20:21;;;;;;;;;52.00;44.75;;;;;-147.17;100.00;-15917.19;4996261;28;51456;-38
2022/12/06 04:23:04;;;;;;;;;45.75;38.50;;;;;-147.17;100.00;-15917.19;5011977;28;51056;-40
2022/12/06 04:25:34;;;;;;;;;47.50;41.00;;;;;-147.17;100.00;-15917.19;5012352;28;51082;-38
2022/12/06 04:38:56;;;;;;;;;39.50;36.00;;;;;-147.17;100.00;-15917.19;5012565;28;51238;-38
2022/12/06 04:44:06;;;;;;;;;39.75;38.75;;;;;-147.17;100.00;-15917.19;5005442;28;52650;-38
2022/12/06 04:46:32;;;;;;;;;41.75;38.50;;;;;-147.17;100.00;-15917.19;5010535;28;50896;-38
2022/12/06 04:48:58;;;;;;;;;44.25;37.50;;;;;-147.17;100.00;-15917.19;5012381;28;50932;-38
2022/12/06 04:51:23;;;;;;;;;41.75;38.00;;;;;-147.17;100.00;-15917.19;5012030;28;50947;-38
2022/12/06 04:53:49;;;;;;;;;41.50;37.50;;;;;-147.17;100.00;-15917.19;4995330;28;51348;-39
2022/12/06 04:56:14;;;;;;;;;43.25;39.00;;;;;-147.17;100.00;-15917.19;4993138;28;51271;-39
2022/12/06 04:58:40;;;;;;;;;54.00;42.25;;;;;-147.17;100.00;-15917.19;4984511;28;51417;-37
2022/12/06 05:01:06;;;;;;;;;49.00;38.50;;;;;-147.17;100.00;-15917.19;5010667;28;50988;-38
2022/12/06 05:03:31;;;;;;;;;40.50;37.00;;;;;-147.17;100.00;-15917.19;5013515;28;50907;-38
2022/12/06 05:05:56;;;;;;;;;39.75;38.50;;;;;-147.17;100.00;-15917.19;4989766;28;50860;-39
2022/12/06 05:08:24;;;;;;;;;48.75;41.75;;;;;-147.17;100.00;-15917.19;4991813;28;51368;-41
2022/12/06 05:10:50;;;;;;;;;48.50;41.50;;;;;-147.17;100.00;-15917.19;5009728;28;51880;-38
2022/12/06 05:13:17;;;;;;;;;49.25;39.50;;;;;-147.17;100.00;-15917.19;5011519;28;51013;-38
2022/12/06 05:15:51;;;;;;;;;46.75;42.00;;;;;-147.17;100.00;-15917.19;4992038;28;51120;-39
2022/12/06 05:18:17;;;;;;;;;50.25;41.00;;;;;-147.17;100.00;-15917.19;4991766;28;51275;-38
2022/12/06 05:20:42;;;;;;;;;43.50;39.00;;;;;-147.17;100.00;-15917.19;4994210;28;51169;-39
2022/12/06 05:23:08;;;;;;;;;45.75;40.25;;;;;-147.17;100.00;-15917.19;5013747;28;51089;-39
2022/12/06 05:25:33;;;;;;;;;42.25;34.00;;;;;-147.17;100.00;-15917.19;5014384;28;50941;-38
2022/12/06 05:27:58;;;;;;;;;51.00;41.25;;;;;-147.17;100.00;-15917.19;5013168;28;51338;-37
2022/12/06 05:30:24;;;;;;;;;49.75;42.25;;;;;-147.17;100.00;-15917.19;5013049;28;51853;-39
2022/12/06 05:32:49;;;;;;;;;44.00;39.25;;;;;-147.17;100.00;-15917.19;5014380;28;51081;-39
2022/12/06 05:35:14;;;;;;;;;55.00;41.50;;;;;-147.17;100.00;-15917.19;4998259;28;51089;-37
2022/12/06 05:37:40;;;;;;;;;36.50;33.75;;;;;-147.17;100.00;-15917.19;5005257;28;51503;-38
2022/12/06 05:40:06;;;;;;;;;37.75;34.25;;;;;-147.17;100.00;-15917.19;5013266;28;50972;-39
2022/12/06 05:42:31;;;;;;;;;46.50;38.75;;;;;-147.17;100.00;-15917.19;4996859;28;51015;-38
2022/12/06 05:44:56;;;;;;;;;39.00;36.00;;;;;-147.17;100.00;-15917.19;5013078;28;51216;-37
2022/12/06 05:47:22;;;;;;;;;41.50;36.50;;;;;-147.17;100.00;-15917.19;5014703;28;51148;-39
2022/12/06 05:49:48;;;;;;;;;45.50;40.50;;;;;-147.17;100.00;-15917.19;4992901;28;53078;-39
2022/12/06 05:52:13;;;;;;;;;40.25;36.00;;;;;-147.17;100.00;-15917.19;5016159;28;51107;-38
2022/12/06 05:54:39;;;;;;;;;43.25;37.25;;;;;-147.17;100.00;-15917.19;5014060;28;51077;-38
2022/12/06 05:57:04;;;;;;;;;43.75;39.00;;;;;-147.17;100.00;-15917.19;5012602;28;51179;-39
2022/12/06 05:59:30;;;;;;;;;50.50;40.50;;;;;-147.17;100.00;-15917.19;5003686;28;51844;-40
2022/12/06 06:01:55;;;;;;;;;44.50;38.75;;;;;-147.17;100.00;-15917.19;5012606;28;51009;-38
2022/12/06 06:04:20;;;;;;;;;43.00;38.50;;;;;-147.17;100.00;-15917.19;5011231;28;51287;-38
2022/12/06 06:06:46;;;;;;;;;38.00;36.25;;;;;-147.17;100.00;-15917.19;5012105;28;51300;-40
2022/12/06 06:09:11;;;;;;;;;40.25;35.75;;;;;-147.17;100.00;-15917.19;5007093;28;51132;-39
2022/12/06 06:11:37;;;;;;;;;39.50;37.00;;;;;-147.17;100.00;-15917.19;4990465;28;51067;-38
2022/12/06 06:14:02;;;;;;;;;37.75;35.50;;;;;-147.17;100.00;-15917.19;5014504;28;51133;-38
2022/12/06 06:16:27;;;;;;;;;36.50;33.25;;;;;-147.17;100.00;-15917.19;5013271;28;51030;-40
2022/12/06 06:18:53;;;;;;;;;34.50;31.25;;;;;-147.17;100.00;-15917.19;5002198;28;51898;-39
2022/12/06 06:21:18;;;;;;;;;34.00;28.50;;;;;-147.17;100.00;-15917.19;5012435;28;51125;-38
2022/12/06 06:23:47;;;;;;;;;41.25;36.75;;;;;-147.17;100.00;-15917.19;5016844;28;51296;-39
2022/12/06 06:26:12;;;;;;;;;38.75;33.00;;;;;-147.17;100.00;-15917.19;5014388;28;50921;-38
2022/12/06 06:28:38;;;;;;;;;37.25;32.75;;;;;-147.17;100.00;-15917.19;4997036;28;52302;-38
2022/12/06 06:31:04;;;;;;;;;36.75;32.75;;;;;-147.17;100.00;-15917.19;5009299;28;51229;-39
2022/12/06 06:33:31;;;;;;;;;34.75;31.75;;;;;-147.17;100.00;-15917.19;5013868;28;51224;-37
2022/12/06 06:35:56;;;;;;;;;30.00;27.75;;;;;-147.17;100.00;-15917.19;4979514;28;51216;-38
2022/12/06 06:38:21;;;;;;;;;42.75;37.50;;;;;-147.17;100.00;-15917.19;5010320;28;51696;-38
2022/12/06 06:40:47;;;;;;;;;36.00;32.75;;;;;-147.17;100.00;-15917.19;5014286;28;51163;-38
2022/12/06 06:43:19;;;;;;;;;43.50;35.25;;;;;-147.17;100.00;-15917.19;5007627;28;51639;-38
2022/12/06 06:45:57;;;;;;;;;35.75;31.75;;;;;-147.17;100.00;-15917.19;5002773;28;51385;-39
2022/12/06 06:48:24;;;;;;;;;33.25;31.25;;;;;-147.17;100.00;-15917.19;5003707;28;51103;-38
2022/12/06 06:50:50;;;;;;;;;38.75;32.75;;;;;-147.17;100.00;-15917.19;5009694;28;51146;-38
2022/12/06 06:53:16;;;;;;;;;40.75;34.00;;;;;-147.17;100.00;-15917.19;5012581;28;50998;-38
2022/12/06 06:55:45;;;;;;;;;33.75;29.50;;;;;-147.17;100.00;-15917.19;4990018;28;55071;-38
2022/12/06 06:58:13;;;;;;;;;50.00;41.25;;;;;-147.17;100.00;-15917.19;4992069;28;54050;-38
2022/12/06 07:00:38;;;;;;;;;40.75;36.00;;;;;-147.17;100.00;-15917.19;5011631;28;50984;-38
2022/12/06 07:03:04;;;;;;;;;42.50;38.00;;;;;-147.17;100.00;-15917.19;5012227;28;51153;-38
2022/12/06 07:05:29;;;;;;;;;37.50;33.00;;;;;-147.17;100.00;-15917.19;4993591;28;51174;-39
2022/12/06 07:07:56;;;;;;;;;43.25;35.25;;;;;-147.17;100.00;-15917.19;5011889;28;52269;-39
2022/12/06 07:10:24;;;;;;;;;36.50;34.50;;;;;-147.17;100.00;-15917.19;5012201;28;51026;-37
2022/12/06 07:12:50;;;;;;;;;33.00;31.00;;;;;-147.17;100.00;-15917.19;5001195;28;51240;-38
2022/12/06 07:15:16;;;;;;;;;40.50;32.50;;;;;-147.17;100.00;-15917.19;4996762;28;51167;-39
2022/12/06 07:17:41;;;;;;;;;40.50;33.50;;;;;-147.17;100.00;-15917.19;5018847;28;51121;-38
2022/12/06 07:20:07;;;;;;;;;30.50;28.00;;;;;-147.17;100.00;-15917.19;5010681;28;51139;-39
2022/12/06 07:22:33;;;;;;;;;38.25;33.25;;;;;-147.17;100.00;-15917.19;5011245;28;51144;-39
2022/12/06 07:24:58;;;;;;;;;39.75;35.75;;;;;-147.17;100.00;-15917.19;5011655;28;51186;-38
2022/12/06 07:27:23;;;;;;;;;40.00;36.00;;;;;-147.17;100.00;-15917.19;5010433;28;51124;-38
2022/12/06 07:29:49;;;;;;;;;30.00;29.00;;;;;-147.17;100.00;-15917.19;5001724;28;51389;-38
2022/12/06 07:32:14;;;;;;;;;34.75;31.00;;;;;-147.17;100.00;-15917.19;5008243;28;51247;-39
2022/12/06 07:34:39;;;;;;;;;30.50;27.75;;;;;-147.17;100.00;-15917.19;4989665;28;51465;-38
2022/12/06 07:37:05;;;;;;;;;36.00;33.75;;;;;-147.17;100.00;-15917.19;5012654;28;53058;-38
2022/12/06 07:39:31;;;;;;;;;34.75;30.50;;;;;-147.17;100.00;-15917.19;4993086;28;51146;-38
2022/12/06 07:45:04;;;;;;;;;32.50;29.00;;;;;-147.17;100.00;-15917.19;4996771;28;51324;-37
2022/12/06 07:47:37;;;;;;;;;41.75;35.25;;;;;-147.17;100.00;-15917.19;5009553;28;52199;-38
2022/12/06 07:50:05;;;;;;;;;43.75;35.75;;;;;-147.17;100.00;-15917.19;5009956;28;51300;-37
2022/12/06 07:52:35;;;;;;;;;34.75;29.50;;;;;-147.17;100.00;-15917.19;4978003;28;51478;-38
2022/12/06 07:55:01;;;;;;;;;38.25;35.00;;;;;-147.17;100.00;-15917.19;5002056;28;51195;-38
2022/12/06 07:57:27;;;;;;;;;37.50;35.25;;;;;-147.17;100.00;-15917.19;5010869;28;51877;-39
2022/12/06 07:59:52;;;;;;;;;47.50;38.25;;;;;-147.17;100.00;-15917.19;5011318;28;51068;-38
2022/12/06 08:02:20;;;;;;;;;37.00;34.00;;;;;-147.17;100.00;-15917.19;5011042;28;51443;-39
2022/12/06 08:04:46;;;;;;;;;37.50;31.75;;;;;-147.17;100.00;-15917.19;5001314;28;53385;-38
2022/12/06 08:07:12;;;;;;;;;44.00;38.50;;;;;-147.17;100.00;-15917.19;5012050;28;52076;-38
2022/12/06 08:09:37;;;;;;;;;48.75;39.50;;;;;-147.17;100.00;-15917.19;5003062;28;51455;-38
2022/12/06 08:12:03;;;;;;;;;42.50;38.25;;;;;-147.17;100.00;-15917.19;4999770;28;51042;-38
2022/12/06 08:14:28;;;;;;;;;48.25;37.00;;;;;-147.17;100.00;-15917.19;5007329;28;51279;-39
2022/12/06 08:16:53;;;;;;;;;45.50;39.25;;;;;-147.17;100.00;-15917.19;4996816;28;51668;-39
2022/12/06 08:19:19;;;;;;;;;36.50;33.00;;;;;-147.17;100.00;-15917.19;4994317;28;50960;-38
2022/12/06 08:21:45;;;;;;;;;48.00;39.25;;;;;-147.17;100.00;-15917.19;5011393;28;51158;-39
2022/12/06 08:24:11;;;;;;;;;46.50;40.25;;;;;-147.17;100.00;-15917.19;5011319;28;51028;-39
2022/12/06 08:26:36;;;;;;;;;45.00;38.00;;;;;-147.17;100.00;-15917.19;5010548;28;52749;-39
2022/12/06 08:29:02;;;;;;;;;46.25;39.75;;;;;-147.17;100.00;-15917.19;5010266;28;51189;-39
2022/12/06 08:31:29;;;;;;;;;43.75;38.50;;;;;-147.17;100.00;-15917.19;5005697;28;51173;-39
2022/12/06 08:33:55;;;;;;;;;43.75;38.25;;;;;-147.17;100.00;-15917.19;5011949;28;51013;-38
2022/12/06 08:36:22;;;;;;;;;46.00;38.50;;;;;-147.17;100.00;-15917.19;5006889;28;51841;-38
2022/12/06 08:38:49;;;;;;;;;53.25;42.50;;;;;-147.17;100.00;-15917.19;5010702;28;51071;-38
2022/12/06 08:44:01;;;;;;;;;54.50;42.75;;;;;-147.17;100.00;-15917.19;5005928;28;51181;-39
2022/12/06 08:46:27;;;;;;;;;51.75;42.50;;;;;-147.17;100.00;-15917.19;5011088;28;51067;-38
2022/12/06 08:48:53;;;;;;;;;51.50;42.50;;;;;-147.17;100.00;-15917.19;4996551;28;51216;-39
2022/12/06 08:51:19;;;;;;;;;50.25;40.75;;;;;-147.17;100.00;-15917.19;5003800;28;51007;-38
2022/12/06 08:53:44;;;;;;;;;56.25;44.25;;;;;-147.17;100.00;-15917.19;5009230;28;51159;-38
2022/12/06 08:56:09;;;;;;;;;54.00;44.25;;;;;-147.17;100.00;-15917.19;5015181;28;51653;-38
2022/12/06 08:58:35;;;;;;;;;57.50;44.75;;;;;-147.17;100.00;-15917.19;5014979;28;51142;-38
2022/12/06 09:01:07;;;;;;;;;54.25;46.00;;;;;-147.17;100.00;-15917.19;5007859;28;50955;-38
2022/12/06 09:03:33;;;;;;;;;55.25;42.00;;;;;-147.17;100.00;-15917.19;5011940;28;51152;-38
2022/12/06 09:06:01;;;;;;;;;45.50;40.75;;;;;-147.17;100.00;-15917.19;5011078;28;51089;-40
2022/12/06 09:08:26;;;;;;;;;56.25;45.50;;;;;-147.17;100.00;-15917.19;4994441;28;51162;-39
2022/12/06 09:10:52;;;;;;;;;53.50;41.00;;;;;-147.17;100.00;-15917.19;5014966;28;51065;-39
2022/12/06 09:13:17;;;;;;;;;53.00;41.50;;;;;-147.17;100.00;-15917.19;5015191;28;50919;-39
2022/12/06 09:15:42;;;;;;;;;59.00;42.50;;;;;-147.17;100.00;-15917.19;5014661;28;51820;-39
2022/12/06 09:18:08;;;;;;;;;57.25;45.75;;;;;-147.17;100.00;-15917.19;5014103;28;50895;-39
2022/12/06 09:20:33;;;;;;;;;56.50;45.25;;;;;-147.17;100.00;-15917.19;5014882;28;50983;-38
2022/12/06 09:22:58;;;;;;;;;58.50;48.25;;;;;-147.17;100.00;-15917.19;5014770;28;50928;-38
2022/12/06 09:25:24;;;;;;;;;50.50;39.50;;;;;-147.17;100.00;-15917.19;5014163;28;52027;-43
2022/12/06 09:27:49;;;;;;;;;55.50;42.75;;;;;-147.17;100.00;-15917.19;5014747;28;50987;-38
2022/12/06 09:30:15;;;;;;;;;57.25;44.75;;;;;-147.17;100.00;-15917.19;5014035;28;51113;-38
2022/12/06 09:32:40;;;;;;;;;57.50;45.75;;;;;-147.17;100.00;-15917.19;5010083;28;51460;-38
2022/12/06 09:35:06;;;;;;;;;58.00;45.75;;;;;-147.17;100.00;-15917.19;5011678;28;51146;-38
2022/12/06 09:37:32;;;;;;;;;56.50;43.50;;;;;-147.17;100.00;-15917.19;5014556;28;51001;-39
2022/12/06 09:40:02;;;;;;;;;51.75;42.25;;;;;-147.17;100.00;-15917.19;5014483;28;51101;-38
2022/12/06 09:42:56;;;;;;;;;46.00;38.00;;;;;-147.17;100.00;-15917.19;5014637;28;50885;-38
2022/12/06 09:45:30;;;;;;;;;51.50;43.75;;;;;-147.17;100.00;-15917.19;5014258;28;51325;-37
2022/12/06 09:48:34;;;;;;;;;52.50;42.00;;;;;-147.17;100.00;-15917.19;5014213;28;51090;-38
2022/12/06 09:51:06;;;;;;;;;60.75;50.25;;;;;-147.17;100.00;-15917.19;5006914;28;51228;-38
2022/12/06 09:53:41;;;;;;;;;44.50;38.25;;;;;-147.17;100.00;-15917.19;5014728;28;51475;-37
2022/12/06 09:56:15;;;;;;;;;54.25;43.75;;;;;-147.17;100.00;-15917.19;5014046;28;51722;-38
2022/12/06 09:58:49;;;;;;;;;51.25;43.00;;;;;-147.17;100.00;-15917.19;5013862;28;51143;-37
2022/12/06 10:01:17;;;;;;;;;49.25;39.00;;;;;-147.17;100.00;-15917.19;5009917;28;50908;-37
2022/12/06 10:03:48;;;;;;;;;44.75;40.00;;;;;-147.17;100.00;-15917.19;5014245;28;51118;-38
2022/12/06 10:06:19;;;;;;;;;45.25;40.00;;;;;-147.17;100.00;-15917.19;5013980;28;51975;-38
2022/12/06 10:08:44;;;;;;;;;50.00;40.50;;;;;-147.17;100.00;-15917.19;5010165;28;51015;-40
2022/12/06 10:11:36;;;;;;;;;51.50;42.25;;;;;-147.17;100.00;-15917.19;5013848;28;51076;-38
2022/12/06 10:14:09;;;;;;;;;49.50;41.75;;;;;-147.17;100.00;-15917.19;5014304;28;51011;-40
2022/12/06 10:16:43;;;;;;;;;47.50;40.25;;;;;-147.17;100.00;-15917.19;5003478;28;51126;-38
2022/12/06 10:19:11;;;;;;;;;44.50;40.00;;;;;-147.17;100.00;-15917.19;5013613;28;51026;-38
2022/12/06 10:22:13;;;;;;;;;41.00;37.25;;;;;-147.17;100.00;-15917.19;5013700;28;51118;-39
2022/12/06 10:25:04;;;;;;;;;50.25;41.50;;;;;-147.17;100.00;-15917.19;5013930;28;51088;-39
2022/12/06 10:27:36;;;;;;;;;45.50;38.25;;;;;-147.17;100.00;-15917.19;5001700;28;51139;-38
2022/12/06 10:30:09;;;;;;;;;48.75;35.75;;;;;-147.17;100.00;-15917.19;5013366;28;50852;-41
2022/12/06 10:32:49;;;;;;;;;39.00;36.50;;;;;-147.17;100.00;-15917.19;5013096;28;50959;-38
2022/12/06 10:35:52;;;;;;;;;46.00;37.75;;;;;-147.17;100.00;-15917.19;5013597;28;51078;-38
2022/12/06 10:38:43;;;;;;;;;43.00;35.00;;;;;-147.17;100.00;-15917.19;5013070;28;52003;-38
2022/12/06 10:41:16;;;;;;;;;41.75;37.75;;;;;-147.17;100.00;-15917.19;5013088;28;50939;-38
2022/12/06 10:43:44;;;;;;;;;47.00;36.75;;;;;-147.17;100.00;-15917.19;5013781;28;51153;-38
2022/12/06 10:49:20;;;;;;;;;51.00;38.25;;;;;-147.17;100.00;-15917.19;5013130;28;50991;-38
2022/12/06 10:52:27;;;;;;;;;59.75;46.50;;;;;-147.17;100.00;-15917.19;5013653;28;51029;-38
2022/12/06 10:55:07;;;;;;;;;47.75;42.25;;;;;-147.17;100.00;-15917.19;4978597;28;51052;-38
2022/12/06 10:57:52;;;;;;;;;45.50;40.25;;;;;-147.17;100.00;-15917.19;5012870;28;51165;-38
2022/12/06 11:00:36;;;;;;;;;48.00;40.75;;;;;-147.17;100.00;-15917.19;5011419;28;51920;-38
2022/12/06 11:03:09;;;;;;;;;46.00;33.00;;;;;-147.17;100.00;-15917.19;5000074;28;51096;-45
2022/12/06 11:05:45;;;;;;;;;44.00;39.75;;;;;-147.17;100.00;-15917.19;5012998;28;51048;-38
2022/12/06 11:08:20;;;;;;;;;43.75;38.00;;;;;-147.17;100.00;-15917.19;5013335;28;51089;-38
2022/12/06 11:10:46;;;;;;;;;50.50;41.50;;;;;-147.17;100.00;-15917.19;5012508;28;51041;-38
2022/12/06 11:13:12;;;;;;;;;53.25;43.25;;;;;-147.17;100.00;-15917.19;5001537;28;51027;-40
2022/12/06 11:15:43;;;;;;;;;62.25;50.00;;;;;-147.17;100.00;-15917.19;5008379;28;51105;-38
2022/12/06 11:18:14;;;;;;;;;56.25;46.50;;;;;-147.17;100.00;-15917.19;5004669;28;50889;-39
2022/12/06 11:20:57;;;;;;;;;57.75;44.75;;;;;-147.17;100.00;-15917.19;5012559;28;52721;-38
2022/12/06 11:23:49;;;;;;;;;50.00;42.25;;;;;-147.17;100.00;-15917.19;5012841;28;51133;-38
2022/12/06 11:26:34;;;;;;;;;52.25;43.50;;;;;-147.17;100.00;-15917.19;5012609;28;51150;-38